createdAt,value
2022-11-16T00:16:14.145Z,10.2
2022-11-16T00:45:20.859Z,10.1
2022-11-16T01:14:45.017Z,10.2
2022-11-16T01:44:03.769Z,10.2
2022-11-16T02:13:27.928Z,10.1
2022-11-16T02:42:45.229Z,10.2
2022-11-16T03:12:07.956Z,10.3
2022-11-16T03:41:32.346Z,10.5
2022-11-16T04:10:55.876Z,10.5
2022-11-16T04:40:06.033Z,10.7
2022-11-16T05:09:31.841Z,10.8
2022-11-16T05:38:56.924Z,10.7
2022-11-16T06:08:07.036Z,10.5
2022-11-16T06:37:31.899Z,10.3
2022-11-16T07:06:34.843Z,10.2
2022-11-16T07:35:36.387Z,10.2
2022-11-16T08:04:48.240Z,10.6
2022-11-16T08:34:02.387Z,10.9
2022-11-16T09:03:14.383Z,11.2
2022-11-16T09:32:19.234Z,11.6
2022-11-16T10:01:33.784Z,12.2
2022-11-16T10:30:39.790Z,12.8
2022-11-16T10:59:51.318Z,12.9
2022-11-16T11:29:02.362Z,13.6
2022-11-16T11:58:18.046Z,13.7
2022-11-16T12:27:28.272Z,13.9
2022-11-16T12:56:35.744Z,14.8
2022-11-16T13:25:57.538Z,14.8
2022-11-16T13:55:16.660Z,13.8
2022-11-16T14:24:29.554Z,13.5
2022-11-16T14:53:35.734Z,13.1
2022-11-16T15:22:30.544Z,12.7
2022-11-16T15:51:47.976Z,12.2
2022-11-16T16:21:02.293Z,11.7
2022-11-16T16:50:19.341Z,11.5
2022-11-16T17:19:31.317Z,11.3
2022-11-16T17:48:44.314Z,10.9
2022-11-16T18:17:47.457Z,10.5
2022-11-16T18:47:06.661Z,10.1
2022-11-16T19:16:24.002Z,9.9
2022-11-16T19:45:27.176Z,10
2022-11-16T20:14:36.416Z,9.6
2022-11-16T20:43:38.200Z,9.5
2022-11-16T21:12:43.526Z,9.5
2022-11-16T21:41:39.736Z,9.4
2022-11-16T22:10:33.786Z,9.6
2022-11-16T22:39:43.150Z,9.6
2022-11-16T23:08:41.796Z,10
2022-11-16T23:37:58.370Z,9.9
